Time;durP1;ratioP1;P1;durP2;ratioP2;P2;SDS_P1;SDS_P2;PMS_P1;PMS_P2;Temp;Humidity;BMP_temperature;BMP_pressure;BME280_temperature;BME280_humidity;BME280_pressure;Samples;Min_cycle;Max_cycle;Signal;HPM_P1;HPM_P2
2023/08/06 00:01:22;;;;;;;17.77;12.02;;;;;;;-148.88;100.00;-17125.47;4995432;28;20511;-77
2023/08/06 00:03:48;;;;;;;21.95;12.93;;;;;;;-148.88;100.00;-17125.47;4995429;28;20485;-76
2023/08/06 00:06:13;;;;;;;15.63;11.88;;;;;;;-148.88;100.00;-17125.47;5013096;28;20041;-77
2023/08/06 00:08:38;;;;;;;19.63;12.50;;;;;;;-148.88;100.00;-17125.47;4995244;28;20112;-77
2023/08/06 00:11:04;;;;;;;17.00;11.98;;;;;;;-148.88;100.00;-17125.47;5012938;28;20451;-77
2023/08/06 00:13:29;;;;;;;17.92;12.05;;;;;;;-148.88;100.00;-17125.47;5012929;28;20060;-77
2023/08/06 00:15:54;;;;;;;16.05;11.30;;;;;;;-148.88;100.00;-17125.47;5012944;28;20449;-77
2023/08/06 00:18:20;;;;;;;13.15;10.43;;;;;;;-148.88;100.00;-17125.47;5012811;28;20022;-77
2023/08/06 00:20:45;;;;;;;13.30;10.07;;;;;;;-148.88;100.00;-17125.47;5012847;28;20022;-76
2023/08/06 00:23:10;;;;;;;14.95;10.18;;;;;;;-148.88;100.00;-17125.47;5012748;28;20030;-76
2023/08/06 00:25:36;;;;;;;12.88;9.48;;;;;;;-148.88;100.00;-17125.47;5012784;28;20037;-77
2023/08/06 00:28:02;;;;;;;12.85;9.70;;;;;;;-148.88;100.00;-17125.47;5012986;28;20033;-77
2023/08/06 00:30:31;;;;;;;14.68;9.93;;;;;;;-148.88;100.00;-17125.47;5012824;28;20022;-76
2023/08/06 00:32:56;;;;;;;10.93;8.63;;;;;;;-148.88;100.00;-17125.47;5012787;28;20053;-77
2023/08/06 00:35:21;;;;;;;11.23;8.27;;;;;;;-148.88;100.00;-17125.47;5016113;28;20468;-77
2023/08/06 00:37:47;;;;;;;11.75;8.70;;;;;;;-148.88;100.00;-17125.47;5016303;28;20032;-77
2023/08/06 00:40:12;;;;;;;11.23;7.97;;;;;;;-148.88;100.00;-17125.47;5016367;28;20033;-76
2023/08/06 00:42:38;;;;;;;12.43;8.55;;;;;;;-148.88;100.00;-17125.47;5016168;28;20037;-77
2023/08/06 00:45:06;;;;;;;12.98;8.90;;;;;;;-148.88;100.00;-17125.47;5016105;28;20058;-77
2023/08/06 00:47:31;;;;;;;11.88;7.93;;;;;;;-148.88;100.00;-17125.47;4998456;28;20488;-77
2023/08/06 00:49:57;;;;;;;9.43;8.00;;;;;;;-148.88;100.00;-17125.47;5016305;28;20022;-78
2023/08/06 00:52:23;;;;;;;10.80;7.88;;;;;;;-148.88;100.00;-17125.47;5016089;28;20584;-77
2023/08/06 00:54:48;;;;;;;9.25;7.18;;;;;;;-148.88;100.00;-17125.47;4998402;28;20018;-77
2023/08/06 00:57:14;;;;;;;11.48;7.47;;;;;;;-148.88;100.00;-17125.47;5015891;28;20069;-76
2023/08/06 00:59:39;;;;;;;11.82;8.57;;;;;;;-148.88;100.00;-17125.47;5016152;28;20473;-77
2023/08/06 01:02:05;;;;;;;13.52;8.20;;;;;;;-148.88;100.00;-17125.47;5015873;28;20121;-77
2023/08/06 01:04:32;;;;;;;10.80;7.85;;;;;;;-148.88;100.00;-17125.47;5015786;28;20022;-77
2023/08/06 01:07:06;;;;;;;11.65;7.90;;;;;;;-148.88;100.00;-17125.47;4998023;28;20064;-77
2023/08/06 01:09:40;;;;;;;9.75;7.13;;;;;;;-148.88;100.00;-17125.47;4998297;28;20030;-77
2023/08/06 01:12:18;;;;;;;12.63;7.70;;;;;;;-148.88;100.00;-17125.47;5016262;28;20022;-76
2023/08/06 01:14:50;;;;;;;13.70;7.22;;;;;;;-148.88;100.00;-17125.47;5015938;28;20025;-77
2023/08/06 01:17:16;;;;;;;10.55;7.88;;;;;;;-148.88;100.00;-17125.47;5015515;28;20024;-77
2023/08/06 01:19:41;;;;;;;7.65;6.82;;;;;;;-148.88;100.00;-17125.47;5015856;28;20022;-77
2023/08/06 01:22:06;;;;;;;9.20;6.85;;;;;;;-148.88;100.00;-17125.47;5015473;28;20440;-77
2023/08/06 01:24:32;;;;;;;8.88;6.60;;;;;;;-148.88;100.00;-17125.47;5015887;28;20030;-77
2023/08/06 01:27:08;;;;;;;9.35;6.63;;;;;;;-148.88;100.00;-17125.47;5015104;28;20032;-77
2023/08/06 01:29:41;;;;;;;9.25;7.05;;;;;;;-148.88;100.00;-17125.47;5015413;28;20048;-77
2023/08/06 01:32:11;;;;;;;10.52;6.53;;;;;;;-148.88;100.00;-17125.47;5015440;28;20026;-77
2023/08/06 01:34:39;;;;;;;9.07;6.53;;;;;;;-148.88;100.00;-17125.47;5015263;28;20026;-77
2023/08/06 01:37:05;;;;;;;10.05;6.90;;;;;;;-148.88;100.00;-17125.47;5015131;28;20021;-77
2023/08/06 01:39:34;;;;;;;9.02;6.68;;;;;;;-148.88;100.00;-17125.47;5015501;28;20435;-77
2023/08/06 01:41:59;;;;;;;9.90;6.75;;;;;;;-148.88;100.00;-17125.47;4997525;28;20029;-76
2023/08/06 01:44:24;;;;;;;8.23;6.30;;;;;;;-148.88;100.00;-17125.47;5015581;28;20021;-77
2023/08/06 01:46:50;;;;;;;8.35;6.55;;;;;;;-148.88;100.00;-17125.47;5014332;28;20025;-76
2023/08/06 01:49:15;;;;;;;7.53;6.10;;;;;;;-148.88;100.00;-17125.47;5015200;28;20380;-77
2023/08/06 01:51:40;;;;;;;9.95;6.43;;;;;;;-148.88;100.00;-17125.47;5014872;28;20030;-77
2023/08/06 01:54:06;;;;;;;9.27;6.22;;;;;;;-148.88;100.00;-17125.47;5014916;28;20018;-77
2023/08/06 01:56:31;;;;;;;8.07;5.38;;;;;;;-148.88;100.00;-17125.47;4997174;28;20053;-77
2023/08/06 01:58:56;;;;;;;7.95;5.75;;;;;;;-148.88;100.00;-17125.47;5014928;28;20060;-76
2023/08/06 02:01:22;;;;;;;6.90;5.70;;;;;;;-148.88;100.00;-17125.47;5014743;28;20022;-76
2023/08/06 02:03:47;;;;;;;12.23;5.70;;;;;;;-148.88;100.00;-17125.47;5014763;28;20033;-77
2023/08/06 02:06:13;;;;;;;8.52;5.95;;;;;;;-148.88;100.00;-17125.47;5021806;23;20053;-88
2023/08/06 02:08:39;;;;;;;11.85;5.97;;;;;;;-148.88;100.00;-17125.47;4997885;28;20034;-88
2023/08/06 02:11:05;;;;;;;7.28;6.30;;;;;;;-148.88;100.00;-17125.47;4997605;28;20022;-87
2023/08/06 02:13:30;;;;;;;10.95;6.57;;;;;;;-148.88;100.00;-17125.47;4997535;28;20079;-88
2023/08/06 02:15:55;;;;;;;9.65;6.95;;;;;;;-148.88;100.00;-17125.47;4998168;28;20465;-87
2023/08/06 02:18:21;;;;;;;11.52;6.88;;;;;;;-148.88;100.00;-17125.47;5015050;28;20396;-88
2023/08/06 02:20:57;;;;;;;7.60;6.05;;;;;;;-148.88;100.00;-17125.47;5016308;23;20048;-75
2023/08/06 02:23:23;;;;;;;7.50;6.70;;;;;;;-148.88;100.00;-17125.47;4995984;28;20034;-75
2023/08/06 02:25:48;;;;;;;8.80;6.80;;;;;;;-148.88;100.00;-17125.47;5013666;28;20020;-75
2023/08/06 02:28:13;;;;;;;9.63;6.75;;;;;;;-148.88;100.00;-17125.47;5013623;28;20503;-75
2023/08/06 02:30:39;;;;;;;8.45;6.65;;;;;;;-148.88;100.00;-17125.47;4995933;28;20025;-75
2023/08/06 02:33:04;;;;;;;10.45;6.10;;;;;;;-148.88;100.00;-17125.47;5013646;28;20076;-75
2023/08/06 02:35:29;;;;;;;8.45;6.45;;;;;;;-148.88;100.00;-17125.47;5013450;28;20076;-75
2023/08/06 02:37:54;;;;;;;7.57;6.05;;;;;;;-148.88;100.00;-17125.47;5013322;28;20022;-75
2023/08/06 02:40:20;;;;;;;7.93;5.90;;;;;;;-148.88;100.00;-17125.47;5013421;28;20038;-74
2023/08/06 02:42:45;;;;;;;8.10;6.53;;;;;;;-148.88;100.00;-17125.47;5013269;28;20030;-75
2023/08/06 02:45:11;;;;;;;8.73;6.30;;;;;;;-148.88;100.00;-17125.47;5013795;28;20038;-75
2023/08/06 02:47:36;;;;;;;7.53;5.85;;;;;;;-148.88;100.00;-17125.47;5013077;28;20493;-75
2023/08/06 02:50:01;;;;;;;8.85;5.43;;;;;;;-148.88;100.00;-17125.47;5013156;28;20543;-75
2023/08/06 02:52:26;;;;;;;7.57;5.90;;;;;;;-148.88;100.00;-17125.47;5013071;28;20468;-75
2023/08/06 02:54:52;;;;;;;8.30;5.78;;;;;;;-148.88;100.00;-17125.47;5013074;28;20393;-75
2023/08/06 02:57:17;;;;;;;8.30;5.95;;;;;;;-148.88;100.00;-17125.47;5012990;28;20485;-74
2023/08/06 02:59:42;;;;;;;9.25;5.90;;;;;;;-148.88;100.00;-17125.47;5013004;28;20488;-75
2023/08/06 03:02:08;;;;;;;8.70;6.10;;;;;;;-148.88;100.00;-17125.47;5013173;28;20022;-75
2023/08/06 03:04:33;;;;;;;9.02;6.55;;;;;;;-148.88;100.00;-17125.47;5013048;28;20029;-75
2023/08/06 03:06:58;;;;;;;8.20;6.13;;;;;;;-148.88;100.00;-17125.47;5012769;28;20026;-76
2023/08/06 03:09:24;;;;;;;10.10;6.25;;;;;;;-148.88;100.00;-17125.47;5012989;28;20080;-76
2023/08/06 03:11:49;;;;;;;10.10;6.45;;;;;;;-148.88;100.00;-17125.47;5012893;28;20030;-75
2023/08/06 03:14:14;;;;;;;8.02;6.10;;;;;;;-148.88;100.00;-17125.47;5012902;28;20484;-75
2023/08/06 03:16:40;;;;;;;10.38;6.78;;;;;;;-148.88;100.00;-17125.47;5012803;28;20370;-75
2023/08/06 03:19:05;;;;;;;9.75;6.88;;;;;;;-148.88;100.00;-17125.47;5012994;28;20022;-75
2023/08/06 03:21:30;;;;;;;9.98;6.95;;;;;;;-148.88;100.00;-17125.47;5012841;28;20109;-75
2023/08/06 03:23:56;;;;;;;9.70;6.78;;;;;;;-148.88;100.00;-17125.47;5013368;28;20057;-73
2023/08/06 03:26:21;;;;;;;9.98;6.95;;;;;;;-148.88;100.00;-17125.47;5013199;28;20028;-73
2023/08/06 03:28:46;;;;;;;11.52;6.55;;;;;;;-148.88;100.00;-17125.47;4995025;28;20485;-73
2023/08/06 03:31:12;;;;;;;10.10;7.32;;;;;;;-148.88;100.00;-17125.47;5012782;28;20534;-74
2023/08/06 03:33:37;;;;;;;11.10;7.13;;;;;;;-148.88;100.00;-17125.47;4995020;28;20076;-73
2023/08/06 03:36:03;;;;;;;9.95;6.47;;;;;;;-148.88;100.00;-17125.47;5012606;28;20548;-73
2023/08/06 03:38:28;;;;;;;9.70;7.22;;;;;;;-148.88;100.00;-17125.47;5012490;28;20076;-73
2023/08/06 03:40:54;;;;;;;7.53;6.57;;;;;;;-148.88;100.00;-17125.47;5012655;28;20022;-73
2023/08/06 03:43:19;;;;;;;9.25;7.40;;;;;;;-148.88;100.00;-17125.47;5012598;28;20565;-74
2023/08/06 03:45:44;;;;;;;11.50;7.95;;;;;;;-148.88;100.00;-17125.47;5012680;28;20409;-73
2023/08/06 03:48:10;;;;;;;11.02;7.57;;;;;;;-148.88;100.00;-17125.47;5012354;28;20057;-73
2023/08/06 03:50:35;;;;;;;11.98;7.82;;;;;;;-148.88;100.00;-17125.47;4994830;28;20072;-73
2023/08/06 03:53:01;;;;;;;9.43;7.88;;;;;;;-148.88;100.00;-17125.47;4994803;28;20124;-73
2023/08/06 03:55:27;;;;;;;10.10;7.78;;;;;;;-148.88;100.00;-17125.47;4994648;28;20060;-73
2023/08/06 03:57:52;;;;;;;10.80;7.65;;;;;;;-148.88;100.00;-17125.47;5012268;28;20041;-73
2023/08/06 04:00:18;;;;;;;12.07;7.50;;;;;;;-148.88;100.00;-17125.47;5012352;28;20124;-73
2023/08/06 04:02:43;;;;;;;12.27;7.57;;;;;;;-148.88;100.00;-17125.47;5012556;28;20018;-73
2023/08/06 04:05:08;;;;;;;9.07;7.20;;;;;;;-148.88;100.00;-17125.47;5012195;28;20026;-74
2023/08/06 04:07:34;;;;;;;10.60;7.40;;;;;;;-148.88;100.00;-17125.47;5012291;28;20450;-73
2023/08/06 04:10:01;;;;;;;10.40;7.55;;;;;;;-148.88;100.00;-17125.47;5015805;28;20408;-73
2023/08/06 04:12:27;;;;;;;8.90;7.38;;;;;;;-148.88;100.00;-17125.47;4999201;28;20079;-74
2023/08/06 04:14:54;;;;;;;8.95;7.57;;;;;;;-148.88;100.00;-17125.47;5016672;28;20109;-73
2023/08/06 04:17:20;;;;;;;10.25;8.05;;;;;;;-148.88;100.00;-17125.47;5016594;28;20021;-73
2023/08/06 04:19:50;;;;;;;11.10;7.78;;;;;;;-148.88;100.00;-17125.47;5016406;28;20105;-73
2023/08/06 04:22:16;;;;;;;10.57;8.05;;;;;;;-148.88;100.00;-17125.47;5016567;28;20155;-73
2023/08/06 04:24:43;;;;;;;8.88;7.65;;;;;;;-148.88;100.00;-17125.47;5016474;28;20054;-73
2023/08/06 04:27:09;;;;;;;9.45;8.10;;;;;;;-148.88;100.00;-17125.47;5016271;28;20018;-73
2023/08/06 04:29:34;;;;;;;9.75;8.30;;;;;;;-148.88;100.00;-17125.47;5016505;28;20500;-73
2023/08/06 04:32:00;;;;;;;10.18;8.00;;;;;;;-148.88;100.00;-17125.47;4998767;28;20062;-73
2023/08/06 04:34:25;;;;;;;12.05;8.13;;;;;;;-148.88;100.00;-17125.47;5016366;28;20476;-73
2023/08/06 04:36:50;;;;;;;13.63;8.68;;;;;;;-148.88;100.00;-17125.47;4998663;28;20488;-73
2023/08/06 04:39:15;;;;;;;10.13;8.25;;;;;;;-148.88;100.00;-17125.47;5016509;28;20029;-74
2023/08/06 04:41:41;;;;;;;11.60;9.07;;;;;;;-148.88;100.00;-17125.47;5016354;28;20018;-73
2023/08/06 04:44:06;;;;;;;12.00;8.38;;;;;;;-148.88;100.00;-17125.47;5016371;28;20022;-73
2023/08/06 04:46:31;;;;;;;11.88;9.07;;;;;;;-148.88;100.00;-17125.47;5015931;28;20017;-73
2023/08/06 04:48:57;;;;;;;11.75;9.55;;;;;;;-148.88;100.00;-17125.47;5016247;28;20065;-73
2023/08/06 04:51:22;;;;;;;13.48;9.80;;;;;;;-148.88;100.00;-17125.47;5016016;28;20018;-73
2023/08/06 04:53:47;;;;;;;14.07;10.35;;;;;;;-148.88;100.00;-17125.47;5015908;28;20029;-73
2023/08/06 04:56:13;;;;;;;11.63;9.65;;;;;;;-148.88;100.00;-17125.47;5015837;28;20072;-73
2023/08/06 04:58:38;;;;;;;14.45;10.52;;;;;;;-148.88;100.00;-17125.47;5015794;28;20061;-73
2023/08/06 05:01:03;;;;;;;13.63;10.18;;;;;;;-148.88;100.00;-17125.47;4998192;28;20060;-73
2023/08/06 05:03:29;;;;;;;15.70;9.77;;;;;;;-148.88;100.00;-17125.47;5015745;28;20029;-73
2023/08/06 05:05:55;;;;;;;14.68;10.45;;;;;;;-148.88;100.00;-17125.47;5015792;28;20022;-74
2023/08/06 05:08:20;;;;;;;16.15;10.02;;;;;;;-148.88;100.00;-17125.47;4998028;28;20079;-74
2023/08/06 05:10:45;;;;;;;12.35;9.65;;;;;;;-148.88;100.00;-17125.47;4998132;28;20029;-74
2023/08/06 05:13:11;;;;;;;12.77;9.15;;;;;;;-148.88;100.00;-17125.47;5015536;28;20097;-73
2023/08/06 05:15:37;;;;;;;11.10;9.40;;;;;;;-148.88;100.00;-17125.47;5015613;28;20417;-72
2023/08/06 05:18:02;;;;;;;12.15;8.63;;;;;;;-148.88;100.00;-17125.47;4997841;28;20026;-73
2023/08/06 05:20:28;;;;;;;11.15;9.10;;;;;;;-148.88;100.00;-17125.47;5014314;28;20038;-73
2023/08/06 05:22:53;;;;;;;12.65;9.52;;;;;;;-148.88;100.00;-17125.47;5015570;28;20508;-73
2023/08/06 05:25:20;;;;;;;11.65;8.30;;;;;;;-148.88;100.00;-17125.47;5015360;28;20049;-73
2023/08/06 05:27:45;;;;;;;11.75;9.15;;;;;;;-148.88;100.00;-17125.47;5015332;28;20034;-73
2023/08/06 05:30:11;;;;;;;14.40;9.10;;;;;;;-148.88;100.00;-17125.47;4997610;28;20407;-73
2023/08/06 05:32:36;;;;;;;15.55;8.98;;;;;;;-148.88;100.00;-17125.47;5015509;28;20109;-73
2023/08/06 05:35:02;;;;;;;10.32;8.95;;;;;;;-148.88;100.00;-17125.47;5015263;28;20026;-73
2023/08/06 05:37:28;;;;;;;13.35;9.57;;;;;;;-148.88;100.00;-17125.47;5015099;28;20013;-73
2023/08/06 05:39:53;;;;;;;10.63;9.07;;;;;;;-148.88;100.00;-17125.47;5015092;28;20030;-73
2023/08/06 05:42:18;;;;;;;14.85;9.32;;;;;;;-148.88;100.00;-17125.47;5015072;28;20044;-72
2023/08/06 05:44:44;;;;;;;13.23;10.18;;;;;;;-148.88;100.00;-17125.47;5015024;28;20104;-73
2023/08/06 05:47:09;;;;;;;14.95;9.70;;;;;;;-148.88;100.00;-17125.47;5015069;28;20101;-72
2023/08/06 05:49:34;;;;;;;12.65;9.82;;;;;;;-148.88;100.00;-17125.47;4997651;28;20034;-72
2023/08/06 05:52:00;;;;;;;13.32;11.18;;;;;;;-148.88;100.00;-17125.47;5014881;28;20033;-73
2023/08/06 05:54:25;;;;;;;12.15;10.27;;;;;;;-148.88;100.00;-17125.47;5014823;28;20018;-72
2023/08/06 05:56:51;;;;;;;12.80;10.40;;;;;;;-148.88;100.00;-17125.47;5014617;28;20101;-72
2023/08/06 05:59:16;;;;;;;14.02;10.68;;;;;;;-148.88;100.00;-17125.47;5014813;28;20117;-72
2023/08/06 06:01:41;;;;;;;11.90;10.07;;;;;;;-148.88;100.00;-17125.47;4997095;28;20415;-72
2023/08/06 06:04:06;;;;;;;13.73;10.63;;;;;;;-148.88;100.00;-17125.47;4997078;28;20433;-72
2023/08/06 06:06:32;;;;;;;14.55;10.07;;;;;;;-148.88;100.00;-17125.47;5014517;28;20014;-72
2023/08/06 06:08:58;;;;;;;12.05;9.65;;;;;;;-148.88;100.00;-17125.47;5014537;28;20076;-72
2023/08/06 06:11:23;;;;;;;13.73;10.48;;;;;;;-148.88;100.00;-17125.47;5014588;28;20021;-72
2023/08/06 06:13:52;;;;;;;12.23;10.05;;;;;;;-148.88;100.00;-17125.47;5014712;28;20022;-72
2023/08/06 06:16:17;;;;;;;13.07;10.07;;;;;;;-148.88;100.00;-17125.47;5014453;28;20029;-72
2023/08/06 06:18:43;;;;;;;12.48;10.23;;;;;;;-148.88;100.00;-17125.47;5014285;28;20033;-72
2023/08/06 06:21:09;;;;;;;12.07;8.90;;;;;;;-148.88;100.00;-17125.47;5014232;28;20112;-72
2023/08/06 06:23:35;;;;;;;11.98;9.20;;;;;;;-148.88;100.00;-17125.47;5014342;28;20030;-73
2023/08/06 06:26:00;;;;;;;14.48;9.20;;;;;;;-148.88;100.00;-17125.47;5014446;28;20029;-72
2023/08/06 06:28:25;;;;;;;13.02;9.30;;;;;;;-148.88;100.00;-17125.47;5014079;28;20034;-72
2023/08/06 06:30:51;;;;;;;12.68;9.02;;;;;;;-148.88;100.00;-17125.47;4996515;28;20068;-72
2023/08/06 06:33:17;;;;;;;11.23;8.90;;;;;;;-148.88;100.00;-17125.47;5013862;28;20022;-72
2023/08/06 06:35:42;;;;;;;10.70;9.15;;;;;;;-148.88;100.00;-17125.47;4996430;28;20396;-72
2023/08/06 06:38:07;;;;;;;11.35;9.13;;;;;;;-148.88;100.00;-17125.47;4996384;28;20025;-72
2023/08/06 06:40:33;;;;;;;11.73;9.10;;;;;;;-148.88;100.00;-17125.47;5014134;28;20053;-72
2023/08/06 06:42:58;;;;;;;11.63;9.10;;;;;;;-148.88;100.00;-17125.47;5014321;28;20053;-72
2023/08/06 06:45:24;;;;;;;10.65;8.68;;;;;;;-148.88;100.00;-17125.47;5013852;28;20057;-72
2023/08/06 06:47:49;;;;;;;10.50;8.30;;;;;;;-148.88;100.00;-17125.47;4996225;28;20152;-72
2023/08/06 06:50:14;;;;;;;11.13;9.00;;;;;;;-148.88;100.00;-17125.47;5013788;28;20030;-72
2023/08/06 06:52:40;;;;;;;10.10;9.00;;;;;;;-148.88;100.00;-17125.47;5013805;28;20155;-73
2023/08/06 06:55:05;;;;;;;9.23;8.32;;;;;;;-148.88;100.00;-17125.47;5013725;28;20212;-73
2023/08/06 06:57:31;;;;;;;10.55;7.80;;;;;;;-148.88;100.00;-17125.47;4996007;28;20108;-72
2023/08/06 06:59:56;;;;;;;10.25;8.00;;;;;;;-148.88;100.00;-17125.47;5013607;28;20153;-72
2023/08/06 07:02:21;;;;;;;11.13;8.48;;;;;;;-148.88;100.00;-17125.47;5013579;28;20484;-73
2023/08/06 07:04:47;;;;;;;9.60;7.55;;;;;;;-148.88;100.00;-17125.47;5013571;28;20503;-73
2023/08/06 07:07:12;;;;;;;8.98;7.38;;;;;;;-148.88;100.00;-17125.47;5013381;28;20492;-73
2023/08/06 07:09:37;;;;;;;9.48;6.95;;;;;;;-148.88;100.00;-17125.47;5013464;28;20068;-74
2023/08/06 07:12:03;;;;;;;7.85;7.03;;;;;;;-148.88;100.00;-17125.47;5013497;28;20026;-73
2023/08/06 07:14:29;;;;;;;8.27;6.70;;;;;;;-148.88;100.00;-17125.47;5013654;28;20029;-73
2023/08/06 07:16:54;;;;;;;7.40;6.60;;;;;;;-148.88;100.00;-17125.47;5013489;28;20116;-73
2023/08/06 07:19:20;;;;;;;6.43;5.82;;;;;;;-148.88;100.00;-17125.47;5013329;28;20041;-73
2023/08/06 07:21:45;;;;;;;6.75;5.88;;;;;;;-148.88;100.00;-17125.47;5013429;28;20072;-73
2023/08/06 07:24:11;;;;;;;6.95;5.88;;;;;;;-148.88;100.00;-17125.47;5013378;28;20108;-74
2023/08/06 07:26:37;;;;;;;7.90;6.03;;;;;;;-148.88;100.00;-17125.47;5013169;28;20022;-74
2023/08/06 07:29:02;;;;;;;6.78;5.90;;;;;;;-148.88;100.00;-17125.47;5013298;28;20026;-73
2023/08/06 07:31:28;;;;;;;7.22;5.18;;;;;;;-148.88;100.00;-17125.47;5013209;28;20022;-72
2023/08/06 07:33:53;;;;;;;6.07;5.28;;;;;;;-148.88;100.00;-17125.47;5013214;28;20058;-73
2023/08/06 07:36:19;;;;;;;6.47;5.55;;;;;;;-148.88;100.00;-17125.47;5013199;28;20026;-73
2023/08/06 07:38:44;;;;;;;7.00;5.60;;;;;;;-148.88;100.00;-17125.47;4995786;28;20125;-72
2023/08/06 07:41:09;;;;;;;6.07;4.95;;;;;;;-148.88;100.00;-17125.47;4995539;28;20520;-72
2023/08/06 07:43:38;;;;;;;7.05;5.20;;;;;;;-148.88;100.00;-17125.47;5012315;28;20028;-72
2023/08/06 07:46:03;;;;;;;6.70;5.30;;;;;;;-148.88;100.00;-17125.47;5012987;28;20476;-72
2023/08/06 07:48:29;;;;;;;6.63;5.05;;;;;;;-148.88;100.00;-17125.47;5013236;28;20064;-72
2023/08/06 07:50:55;;;;;;;6.00;4.97;;;;;;;-148.88;100.00;-17125.47;5013076;28;20467;-72
2023/08/06 07:53:22;;;;;;;5.95;4.43;;;;;;;-148.88;100.00;-17125.47;5013042;28;20104;-72
2023/08/06 07:55:52;;;;;;;5.70;4.78;;;;;;;-148.88;100.00;-17125.47;5013636;28;20425;-72
2023/08/06 07:58:18;;;;;;;8.93;5.18;;;;;;;-148.88;100.00;-17125.47;4995272;28;20076;-73
2023/08/06 08:00:45;;;;;;;5.60;4.75;;;;;;;-148.88;100.00;-17125.47;5012967;28;20030;-73
2023/08/06 08:03:14;;;;;;;5.88;4.78;;;;;;;-148.88;100.00;-17125.47;5013127;28;20029;-73
2023/08/06 08:05:40;;;;;;;6.18;5.07;;;;;;;-148.88;100.00;-17125.47;5012927;28;20021;-73
2023/08/06 08:08:05;;;;;;;6.68;4.90;;;;;;;-148.88;100.00;-17125.47;5012914;28;20101;-73
2023/08/06 08:10:31;;;;;;;6.15;4.55;;;;;;;-148.88;100.00;-17125.47;5013120;28;20489;-73
2023/08/06 08:12:57;;;;;;;8.40;4.85;;;;;;;-148.88;100.00;-17125.47;5013241;28;20444;-73
2023/08/06 08:15:22;;;;;;;7.10;4.05;;;;;;;-148.88;100.00;-17125.47;5011222;28;20026;-72
2023/08/06 08:17:48;;;;;;;5.68;4.43;;;;;;;-148.88;100.00;-17125.47;4994009;28;20026;-72
2023/08/06 08:20:13;;;;;;;5.80;4.53;;;;;;;-148.88;100.00;-17125.47;5012597;28;20041;-72
2023/08/06 08:22:39;;;;;;;7.15;4.93;;;;;;;-148.88;100.00;-17125.47;5011637;28;20030;-72
2023/08/06 08:25:05;;;;;;;5.80;4.30;;;;;;;-148.88;100.00;-17125.47;5011644;28;20112;-71
2023/08/06 08:27:30;;;;;;;5.47;3.80;;;;;;;-148.88;100.00;-17125.47;5012485;28;20030;-72
2023/08/06 08:29:56;;;;;;;4.13;3.55;;;;;;;-148.88;100.00;-17125.47;5012622;28;20111;-73
2023/08/06 08:32:21;;;;;;;4.85;3.58;;;;;;;-148.88;100.00;-17125.47;5012463;28;20018;-72
2023/08/06 08:34:46;;;;;;;4.55;3.83;;;;;;;-148.88;100.00;-17125.47;5012637;28;20051;-72
2023/08/06 08:37:13;;;;;;;4.80;3.95;;;;;;;-148.88;100.00;-17125.47;5012553;28;20033;-73
2023/08/06 08:39:38;;;;;;;4.68;3.55;;;;;;;-148.88;100.00;-17125.47;5012562;28;20026;-72
2023/08/06 08:42:04;;;;;;;7.07;3.80;;;;;;;-148.88;100.00;-17125.47;5012555;28;20392;-73
2023/08/06 08:44:31;;;;;;;5.25;4.28;;;;;;;-148.88;100.00;-17125.47;4994816;28;20500;-72
2023/08/06 08:46:57;;;;;;;6.18;3.80;;;;;;;-148.88;100.00;-17125.47;5012354;28;20056;-72
2023/08/06 08:49:24;;;;;;;4.85;3.70;;;;;;;-148.88;100.00;-17125.47;5012408;28;20026;-72
2023/08/06 08:51:52;;;;;;;5.53;3.70;;;;;;;-148.88;100.00;-17125.47;5012418;28;20037;-72
2023/08/06 08:54:19;;;;;;;3.40;2.85;;;;;;;-148.88;100.00;-17125.47;4994892;28;20018;-71
2023/08/06 08:56:45;;;;;;;4.57;3.20;;;;;;;-148.88;100.00;-17125.47;5015768;28;20056;-72
2023/08/06 08:59:11;;;;;;;6.95;3.88;;;;;;;-148.88;100.00;-17125.47;5015870;28;20105;-72
2023/08/06 09:01:39;;;;;;;6.60;3.40;;;;;;;-148.88;100.00;-17125.47;5015987;28;20026;-72
2023/08/06 09:04:06;;;;;;;4.20;3.10;;;;;;;-148.88;100.00;-17125.47;5015726;28;20504;-72
2023/08/06 09:06:35;;;;;;;5.22;3.72;;;;;;;-148.88;100.00;-17125.47;4997870;28;20037;-72
2023/08/06 09:09:08;;;;;;;4.10;3.28;;;;;;;-148.88;100.00;-17125.47;4998135;28;20092;-72
2023/08/06 09:11:40;;;;;;;5.03;3.40;;;;;;;-148.88;100.00;-17125.47;5015620;28;20104;-72
2023/08/06 09:14:08;;;;;;;5.15;3.10;;;;;;;-148.88;100.00;-17125.47;4998031;28;20576;-72
2023/08/06 09:16:35;;;;;;;4.20;2.97;;;;;;;-148.88;100.00;-17125.47;5015363;28;20032;-72
2023/08/06 09:19:12;;;;;;;4.32;2.80;;;;;;;-148.88;100.00;-17125.47;5015548;28;20105;-72
2023/08/06 09:21:38;;;;;;;5.20;3.40;;;;;;;-148.88;100.00;-17125.47;5014592;28;20029;-72
2023/08/06 09:24:13;;;;;;;3.63;2.92;;;;;;;-148.88;100.00;-17125.47;5015387;28;20092;-72
2023/08/06 09:26:41;;;;;;;3.67;2.92;;;;;;;-148.88;100.00;-17125.47;4996395;28;20397;-72
2023/08/06 09:29:07;;;;;;;4.90;2.80;;;;;;;-148.88;100.00;-17125.47;4997700;28;20026;-72
2023/08/06 09:31:40;;;;;;;4.57;3.00;;;;;;;-148.88;100.00;-17125.47;5015281;28;20060;-72
2023/08/06 09:34:14;;;;;;;4.10;3.33;;;;;;;-148.88;100.00;-17125.47;5015298;28;20053;-73
2023/08/06 09:36:51;;;;;;;4.22;2.75;;;;;;;-148.88;100.00;-17125.47;5015060;28;20026;-73
2023/08/06 09:39:21;;;;;;;8.23;3.38;;;;;;;-148.88;100.00;-17125.47;5015270;28;20073;-73
2023/08/06 09:41:48;;;;;;;4.70;3.17;;;;;;;-148.88;100.00;-17125.47;5015003;28;20053;-72
2023/08/06 09:44:18;;;;;;;4.55;3.10;;;;;;;-148.88;100.00;-17125.47;5015099;28;20021;-72
2023/08/06 09:47:00;;;;;;;6.10;2.80;;;;;;;-148.88;100.00;-17125.47;5014695;28;20014;-73
2023/08/06 09:49:33;;;;;;;4.40;2.67;;;;;;;-148.88;100.00;-17125.47;5015730;28;20033;-73
2023/08/06 09:51:59;;;;;;;4.55;2.63;;;;;;;-148.88;100.00;-17125.47;5014863;28;20488;-73
2023/08/06 09:54:26;;;;;;;4.18;3.20;;;;;;;-148.88;100.00;-17125.47;5014734;28;20037;-74
2023/08/06 09:56:55;;;;;;;3.97;2.75;;;;;;;-148.88;100.00;-17125.47;5014762;28;20049;-73
2023/08/06 09:59:21;;;;;;;5.22;2.88;;;;;;;-148.88;100.00;-17125.47;4997202;28;20033;-73
2023/08/06 10:01:46;;;;;;;6.20;3.13;;;;;;;-148.88;100.00;-17125.47;5014686;28;20021;-72
2023/08/06 10:04:16;;;;;;;4.40;3.00;;;;;;;-148.88;100.00;-17125.47;5014576;28;20017;-73
2023/08/06 10:06:42;;;;;;;5.35;2.60;;;;;;;-148.88;100.00;-17125.47;5013954;28;20029;-73
2023/08/06 10:09:09;;;;;;;2.92;2.40;;;;;;;-148.88;100.00;-17125.47;5014520;28;20053;-73
2023/08/06 10:11:36;;;;;;;6.80;2.63;;;;;;;-148.88;100.00;-17125.47;4996883;28;20377;-73
2023/08/06 10:14:21;;;;;;;4.80;2.67;;;;;;;-148.88;100.00;-17125.47;5014410;28;20026;-73
2023/08/06 10:16:47;;;;;;;4.50;2.53;;;;;;;-148.88;100.00;-17125.47;5014382;28;20113;-73
2023/08/06 10:19:15;;;;;;;4.35;2.13;;;;;;;-148.88;100.00;-17125.47;5014226;28;20025;-73
2023/08/06 10:21:40;;;;;;;4.13;2.67;;;;;;;-148.88;100.00;-17125.47;4996969;28;20044;-73
2023/08/06 10:24:14;;;;;;;5.60;2.42;;;;;;;-148.88;99.04;-17125.47;5014381;28;20026;-74
2023/08/06 10:26:40;;;;;;;4.60;2.47;;;;;;;-148.88;98.88;-17125.47;5014234;28;20025;-73
2023/08/06 10:29:36;;;;;;;2.90;2.13;;;;;;;-148.88;100.00;-17125.47;5014265;28;20030;-73
2023/08/06 10:32:02;;;;;;;3.78;2.33;;;;;;;-148.88;98.80;-17125.47;4996674;28;20561;-73
2023/08/06 10:34:54;;;;;;;3.75;2.47;;;;;;;-148.88;100.00;-17125.47;5014039;28;20060;-73
2023/08/06 10:37:20;;;;;;;2.97;2.22;;;;;;;-148.88;98.61;-17125.47;5013952;28;20040;-74
2023/08/06 10:39:50;;;;;;;3.78;2.13;;;;;;;-148.88;95.72;-17125.47;5014013;28;20017;-74
2023/08/06 10:42:20;;;;;;;4.25;2.22;;;;;;;-148.88;95.44;-17125.47;4996327;28;20029;-73
2023/08/06 10:45:28;;;;;;;3.58;1.98;;;;;;;-148.88;92.60;-17125.47;4996268;28;20049;-74
2023/08/06 10:47:54;;;;;;;2.58;2.00;;;;;;;-148.88;90.04;-17125.47;4915149;29;20070;-74
2023/08/06 10:50:20;;;;;;;3.78;2.20;;;;;;;-148.88;90.99;-17125.47;4915249;29;20063;-73
2023/08/06 10:52:46;;;;;;;2.95;2.05;;;;;;;-148.88;90.36;-17125.47;4963822;28;20463;-73
2023/08/06 10:55:13;;;;;;;3.45;1.85;;;;;;;-148.88;90.85;-17125.47;5013527;28;20029;-73